Chie Maru No.10 — JD2376 — position and weather

sailwx.info

Track history (hours):
 
Tides and Currents Weather Stations Pressure Air Temp Water Temp Dewpoint Dewpoint Depression Visibility Wind Speed Wind Dir Waves Ship Positions

Chie Maru No.10

Last reported at 2016-Jul-23 12:09 UTC. Time now 2016-Jul-30 11:13 UTC.
Position N 36°03' E 140°44'.

Length 72 m; draft 3.8 m.

Type: Ship. MMSI: 431000147.

Date/timePositionNaut miles runAvg speedWind from/ knotsBaromVisibWave heightAir tempDewpointWater temp
2016-Jul-23 12:09N 36°03' E 140°44'610.1
2016-Jul-23 11:33N 35°57' E 140°42'3 1.5
2016-Jul-23 09:31N 35°55' E 140°41'0 0.0
2016-Jul-23 06:15N 35°55' E 140°41'5 1.5
2016-Jul-23 02:33N 35°60' E 140°43'5 0.1
2016-Jul-21 06:12N 36°05' E 140°43'711.4
2016-Jul-21 05:33N 35°57' E 140°43'3 0.5
2016-Jul-20 23:28N 35°55' E 140°41'5 4.7
2016-Jul-20 22:28N 35°59' E 140°43'1 0.5
2016-Jul-20 21:29N 35°59' E 140°43'0 0.0
2016-Jul-20 20:29N 35°59' E 140°43'0 0.0
2016-Jul-20 19:26N 35°59' E 140°43'0 0.0
2016-Jul-20 17:05N 35°59' E 140°43'4 0.1
2016-Jul-19 02:32N 35°55' E 140°41'1 0.2
2016-Jul-18 22:06N 35°55' E 140°41'3 4.9
2016-Jul-18 21:33N 35°57' E 140°42'1611.6
2016-Jul-18 20:12N 36°12' E 140°45'26 0.9
2016-Jul-17 16:15N 36°37' E 140°53'1112.4
2016-Jul-17 15:22N 36°26' E 140°54'1012.5
2016-Jul-17 14:32N 36°16' E 140°54'5111.6
2016-Jul-17 10:11N 35°26' E 140°41'1313.4
2016-Jul-17 09:13N 35°16' E 140°32'2213.3
2016-Jul-17 07:33N 35°00' E 140°13'1212.2
2016-Jul-17 06:33N 34°53' E 140°00'17 8.5
2016-Jul-17 04:33N 35°02' E 139°43'1211.7
2016-Jul-17 03:33N 35°14' E 139°46'1110.8
2016-Jul-17 02:33N 35°24' E 139°43'8 7.7
2016-Jul-17 01:34N 35°31' E 139°46'0 0.0
2016-Jul-17 00:33N 35°31' E 139°46'0 0.0
2016-Jul-16 23:33N 35°31' E 139°46'0 0.0
2016-Jul-16 22:33N 35°31' E 139°46'1 1.1
2016-Jul-16 21:33N 35°30' E 139°47'2 1.8
2016-Jul-16 20:31N 35°29' E 139°48'0 0.0
2016-Jul-16 19:31N 35°29' E 139°48'6 6.0
2016-Jul-16 18:33N 35°23' E 139°46'1211.6
2016-Jul-16 17:33N 35°12' E 139°47'1513.1
2016-Jul-16 16:23N 34°56' E 139°44'2210.3
2016-Jul-16 14:12N 34°59' E 140°11'3712.1
2016-Jul-16 11:11N 35°26' E 140°42'  
Track history (hours):
 
Tides and Currents Weather Stations Pressure Air Temp Water Temp Dewpoint Dewpoint Depression Visibility Wind Speed Wind Dir Waves Ship Positions

Chie Maru No.10

Last reported at 2016-Jul-23 12:09 UTC. Time now 2016-Jul-30 11:13 UTC.
Position N 36°03' E 140°44'.

Length 72 m; draft 3.8 m.

Type: Ship. MMSI: 431000147.

Date/timePositionNaut miles runAvg speedWind from/ knotsBaromVisibWave heightAir tempDewpointWater temp
2016-Jul-23 12:09N 36°03' E 140°44'610.1
2016-Jul-23 11:33N 35°57' E 140°42'3 1.5
2016-Jul-23 09:31N 35°55' E 140°41'0 0.0
2016-Jul-23 06:15N 35°55' E 140°41'5 1.5
2016-Jul-23 02:33N 35°60' E 140°43'5 0.1
2016-Jul-21 06:12N 36°05' E 140°43'711.4
2016-Jul-21 05:33N 35°57' E 140°43'3 0.5
2016-Jul-20 23:28N 35°55' E 140°41'5 4.7
2016-Jul-20 22:28N 35°59' E 140°43'1 0.5
2016-Jul-20 21:29N 35°59' E 140°43'0 0.0
2016-Jul-20 20:29N 35°59' E 140°43'0 0.0
2016-Jul-20 19:26N 35°59' E 140°43'0 0.0
2016-Jul-20 17:05N 35°59' E 140°43'4 0.1
2016-Jul-19 02:32N 35°55' E 140°41'1 0.2
2016-Jul-18 22:06N 35°55' E 140°41'3 4.9
2016-Jul-18 21:33N 35°57' E 140°42'1611.6
2016-Jul-18 20:12N 36°12' E 140°45'26 0.9
2016-Jul-17 16:15N 36°37' E 140°53'1112.4
2016-Jul-17 15:22N 36°26' E 140°54'1012.5
2016-Jul-17 14:32N 36°16' E 140°54'5111.6
2016-Jul-17 10:11N 35°26' E 140°41'1313.4
2016-Jul-17 09:13N 35°16' E 140°32'2213.3
2016-Jul-17 07:33N 35°00' E 140°13'1212.2
2016-Jul-17 06:33N 34°53' E 140°00'17 8.5
2016-Jul-17 04:33N 35°02' E 139°43'1211.7
2016-Jul-17 03:33N 35°14' E 139°46'1110.8
2016-Jul-17 02:33N 35°24' E 139°43'8 7.7
2016-Jul-17 01:34N 35°31' E 139°46'0 0.0
2016-Jul-17 00:33N 35°31' E 139°46'0 0.0
2016-Jul-16 23:33N 35°31' E 139°46'0 0.0
2016-Jul-16 22:33N 35°31' E 139°46'1 1.1
2016-Jul-16 21:33N 35°30' E 139°47'2 1.8
2016-Jul-16 20:31N 35°29' E 139°48'0 0.0
2016-Jul-16 19:31N 35°29' E 139°48'6 6.0
2016-Jul-16 18:33N 35°23' E 139°46'1211.6
2016-Jul-16 17:33N 35°12' E 139°47'1513.1
2016-Jul-16 16:23N 34°56' E 139°44'2210.3
2016-Jul-16 14:12N 34°59' E 140°11'3712.1
2016-Jul-16 11:11N 35°26' E 140°42'  

Dump ship's entire track history